createdAt,value
2019-01-21T00:01:59.509Z,13.50
2019-01-21T00:04:29.342Z,12.23
2019-01-21T00:06:59.075Z,13.40
2019-01-21T00:09:28.736Z,12.57
2019-01-21T00:11:58.427Z,15.43
2019-01-21T00:14:28.084Z,13.97
2019-01-21T00:16:57.841Z,12.27
2019-01-21T00:19:27.578Z,11.53
2019-01-21T00:21:57.280Z,15.17
2019-01-21T00:24:27.036Z,13.27
2019-01-21T00:26:56.708Z,13.87
2019-01-21T00:29:26.433Z,13.00
2019-01-21T00:31:56.111Z,14.87
2019-01-21T00:34:25.804Z,13.20
2019-01-21T00:36:55.577Z,13.53
2019-01-21T00:39:25.255Z,12.17
2019-01-21T00:41:54.947Z,15.87
2019-01-21T00:44:24.636Z,14.80
2019-01-21T00:46:54.361Z,14.57
2019-01-21T00:49:24.013Z,13.70
2019-01-21T00:51:53.675Z,13.10
2019-01-21T00:54:23.359Z,14.93
2019-01-21T00:56:53.124Z,14.50
2019-01-21T00:59:22.857Z,14.80
2019-01-21T01:01:52.637Z,13.33
2019-01-21T01:04:22.373Z,13.93
2019-01-21T01:06:52.067Z,13.87
2019-01-21T01:09:21.739Z,15.63
2019-01-21T01:11:51.429Z,12.97
2019-01-21T01:14:21.104Z,15.07
2019-01-21T01:16:50.825Z,13.90
2019-01-21T01:19:20.471Z,13.67
2019-01-21T01:21:50.162Z,15.20
2019-01-21T01:24:19.813Z,15.07
2019-01-21T01:26:49.501Z,14.13
2019-01-21T01:29:19.155Z,14.20
2019-01-21T01:31:48.840Z,14.23
2019-01-21T01:34:18.507Z,14.60
2019-01-21T01:36:48.299Z,13.70
2019-01-21T01:39:17.997Z,12.80
2019-01-21T01:41:47.748Z,14.30
2019-01-21T01:44:17.495Z,13.53
2019-01-21T01:46:47.486Z,13.47
2019-01-21T01:49:17.246Z,15.30
2019-01-21T01:51:46.919Z,14.67
2019-01-21T01:54:16.665Z,14.13
2019-01-21T01:56:46.512Z,14.77
2019-01-21T01:59:16.477Z,13.03
2019-01-21T02:01:46.383Z,13.30
2019-01-21T02:04:16.114Z,15.50
2019-01-21T02:06:45.947Z,15.17
2019-01-21T02:09:15.592Z,13.53
2019-01-21T02:11:45.422Z,11.37
2019-01-21T02:14:15.123Z,15.73
2019-01-21T02:16:44.834Z,15.00
2019-01-21T02:19:14.572Z,13.53
2019-01-21T02:21:44.799Z,14.80
2019-01-21T02:24:16.829Z,15.30
2019-01-21T02:27:00.601Z,14.17
2019-01-21T02:30:00.213Z,14.90
2019-01-21T02:32:56.499Z,14.83
2019-01-21T02:35:34.986Z,15.17
2019-01-21T02:38:37.528Z,13.50
2019-01-21T02:41:47.008Z,13.57
2019-01-21T02:44:27.038Z,14.27
2019-01-21T02:47:25.314Z,15.67
2019-01-21T02:50:51.227Z,15.77
2019-01-21T02:53:50.718Z,13.50
2019-01-21T02:57:10.650Z,15.40
2019-01-21T03:00:08.962Z,13.67
2019-01-21T03:03:26.328Z,13.50
2019-01-21T03:06:24.629Z,12.50
2019-01-21T03:09:36.369Z,14.27
2019-01-21T03:12:46.228Z,14.07
2019-01-21T03:15:37.940Z,13.20
2019-01-21T03:18:41.202Z,15.30
2019-01-21T03:21:48.556Z,11.90
2019-01-21T03:24:58.230Z,13.07
2019-01-21T03:27:43.404Z,13.87
2019-01-21T03:31:13.664Z,13.57
2019-01-21T03:34:11.781Z,13.73
2019-01-21T03:37:41.104Z,12.00
2019-01-21T03:40:58.040Z,15.10
2019-01-21T03:43:54.706Z,13.60
2019-01-21T03:46:53.298Z,14.37
2019-01-21T03:50:10.165Z,14.20
2019-01-21T03:53:20.156Z,15.17
2019-01-21T03:55:52.991Z,13.17
2019-01-21T03:59:01.232Z,15.43
2019-01-21T04:02:12.189Z,13.90
2019-01-21T04:05:00.918Z,15.37
2019-01-21T04:07:40.238Z,12.27
2019-01-21T04:10:59.734Z,14.67
2019-01-21T04:13:41.268Z,14.70
2019-01-21T04:16:43.170Z,13.53
2019-01-21T04:19:22.510Z,12.40
2019-01-21T04:22:29.928Z,14.93
2019-01-21T04:25:46.832Z,13.93
2019-01-21T04:28:45.876Z,14.73
2019-01-21T04:31:56.988Z,13.10
2019-01-21T04:35:05.644Z,13.90
2019-01-21T04:38:11.810Z,11.37
2019-01-21T04:40:58.792Z,14.10
2019-01-21T04:44:15.716Z,14.97
2019-01-21T04:47:18.486Z,13.23
2019-01-21T04:50:18.736Z,13.10
2019-01-21T04:53:15.378Z,13.37
2019-01-21T04:56:26.186Z,16.20
2019-01-21T05:00:04.781Z,12.50
2019-01-21T05:03:10.818Z,13.07
2019-01-21T05:06:07.856Z,11.90
2019-01-21T05:09:04.459Z,13.13
2019-01-21T05:12:00.681Z,11.10
2019-01-21T05:15:09.908Z,13.67
2019-01-21T05:18:02.802Z,12.57
2019-01-21T05:21:10.397Z,13.83
2019-01-21T05:24:20.690Z,10.40
2019-01-21T05:27:14.146Z,14.00
2019-01-21T05:30:02.106Z,14.40
2019-01-21T05:33:19.224Z,12.00
2019-01-21T05:36:15.836Z,12.40
2019-01-21T05:39:25.702Z,12.10
2019-01-21T05:42:31.746Z,12.77
2019-01-21T05:45:55.132Z,9.73
2019-01-21T05:49:02.230Z,12.53
2019-01-21T05:52:37.801Z,13.83
2019-01-21T05:55:45.701Z,12.10
2019-01-21T05:58:32.796Z,14.60
2019-01-21T06:01:46.155Z,12.57
2019-01-21T06:04:42.976Z,9.27
2019-01-21T06:08:09.055Z,11.93
2019-01-21T06:10:47.272Z,14.40
2019-01-21T06:13:55.542Z,12.03
2019-01-21T06:16:49.778Z,12.20
2019-01-21T06:19:55.633Z,11.70
2019-01-21T06:22:57.254Z,10.57
2019-01-21T06:26:23.703Z,11.13
2019-01-21T06:29:24.387Z,13.13
2019-01-21T06:32:56.915Z,11.63
2019-01-21T06:36:03.241Z,13.17
2019-01-21T06:39:26.357Z,11.93
2019-01-21T06:42:21.842Z,11.03
2019-01-21T06:45:31.466Z,14.10
2019-01-21T06:48:19.695Z,11.80
2019-01-21T06:51:32.916Z,12.80
2019-01-21T06:54:35.036Z,12.77
2019-01-21T06:57:58.475Z,12.97
2019-01-21T07:01:11.021Z,11.17
2019-01-21T07:04:31.299Z,12.80
2019-01-21T07:08:03.848Z,11.27
2019-01-21T07:11:05.002Z,11.00
2019-01-21T07:13:58.475Z,9.93
2019-01-21T07:16:56.735Z,12.00
2019-01-21T07:20:22.809Z,12.23
2019-01-21T07:23:38.876Z,14.20
2019-01-21T07:26:48.863Z,12.90
2019-01-21T07:29:58.416Z,12.70
2019-01-21T07:32:42.992Z,11.30
2019-01-21T07:35:58.226Z,10.73
2019-01-21T07:38:51.745Z,13.47
2019-01-21T07:42:04.761Z,10.77
2019-01-21T07:45:02.886Z,11.20
2019-01-21T07:48:05.234Z,11.33
2019-01-21T07:51:13.371Z,13.37
2019-01-21T07:54:12.373Z,12.90
2019-01-21T07:57:10.693Z,11.57
2019-01-21T08:00:02.816Z,13.53
2019-01-21T08:03:02.206Z,13.03
2019-01-21T08:06:06.787Z,11.70
2019-01-21T08:08:56.463Z,12.80
2019-01-21T08:12:07.316Z,13.80
2019-01-21T08:15:12.133Z,14.17
2019-01-21T08:18:03.636Z,14.27
2019-01-21T08:21:01.186Z,11.90
2019-01-21T08:24:33.497Z,13.93
2019-01-21T08:27:41.063Z,14.40
2019-01-21T08:30:47.576Z,12.50
2019-01-21T08:33:33.504Z,12.67
2019-01-21T08:36:30.755Z,11.27
2019-01-21T08:39:30.823Z,13.60
2019-01-21T08:42:36.071Z,12.80
2019-01-21T08:45:41.076Z,13.57
2019-01-21T08:48:41.411Z,13.47
2019-01-21T08:51:58.138Z,10.53
2019-01-21T08:55:14.187Z,13.40
2019-01-21T08:58:21.689Z,12.47
2019-01-21T09:01:23.665Z,13.97
2019-01-21T09:04:16.293Z,15.17
2019-01-21T09:07:25.847Z,15.37
2019-01-21T09:10:28.661Z,14.13
2019-01-21T09:13:30.945Z,13.13
2019-01-21T09:16:47.843Z,12.60
2019-01-21T09:19:51.970Z,13.77
2019-01-21T09:23:03.062Z,13.10
2019-01-21T09:26:29.386Z,13.63
2019-01-21T09:29:26.914Z,12.50
2019-01-21T09:32:07.172Z,16.23
2019-01-21T09:35:19.723Z,14.23
2019-01-21T09:38:26.076Z,13.50
2019-01-21T09:41:24.774Z,10.93
2019-01-21T09:44:19.703Z,15.10
2019-01-21T09:46:48.742Z,13.30
2019-01-21T09:49:16.977Z,13.57
2019-01-21T09:52:23.789Z,13.77
2019-01-21T09:54:53.832Z,12.93
2019-01-21T09:57:27.659Z,14.03
2019-01-21T10:00:00.497Z,14.80
2019-01-21T10:02:45.090Z,12.37
2019-01-21T10:05:16.328Z,13.67
2019-01-21T10:08:24.557Z,14.67
2019-01-21T10:11:31.453Z,13.87
2019-01-21T10:14:40.807Z,13.37
2019-01-21T10:17:54.771Z,11.77
2019-01-21T10:21:04.638Z,13.70
2019-01-21T10:24:14.317Z,10.30
2019-01-21T10:27:52.500Z,10.03
2019-01-21T10:31:01.849Z,13.10
2019-01-21T10:34:15.418Z,14.03
2019-01-21T10:37:26.767Z,13.33
2019-01-21T10:40:09.542Z,12.90
2019-01-21T10:43:20.691Z,11.20
2019-01-21T10:46:31.909Z,12.13
2019-01-21T10:49:47.952Z,11.17
2019-01-21T10:52:54.840Z,12.17
2019-01-21T10:55:49.199Z,11.57
2019-01-21T10:58:50.296Z,12.90
2019-01-21T11:02:16.507Z,12.27
2019-01-21T11:05:14.872Z,10.83
2019-01-21T11:08:22.068Z,12.53
2019-01-21T11:11:38.920Z,10.43
2019-01-21T11:14:45.976Z,10.33
2019-01-21T11:18:01.372Z,11.27
2019-01-21T11:21:00.181Z,13.27
2019-01-21T11:24:23.241Z,10.67
2019-01-21T11:27:13.599Z,11.57
2019-01-21T11:30:19.403Z,10.57
2019-01-21T11:33:36.809Z,10.47
2019-01-21T11:36:53.855Z,6.13
2019-01-21T11:40:07.903Z,8.57
2019-01-21T11:43:13.515Z,11.80
2019-01-21T11:46:06.007Z,11.10
2019-01-21T11:49:14.080Z,10.90
2019-01-21T11:52:23.508Z,12.20
2019-01-21T11:55:35.619Z,9.00
2019-01-21T11:58:51.913Z,11.13
2019-01-21T12:01:44.663Z,11.80
2019-01-21T12:04:40.479Z,11.20
2019-01-21T12:07:37.332Z,11.17
2019-01-21T12:10:29.959Z,10.63
2019-01-21T12:13:34.464Z,11.70
2019-01-21T12:16:35.533Z,10.83
2019-01-21T12:19:36.812Z,11.40
2019-01-21T12:22:20.282Z,10.17
2019-01-21T12:25:12.929Z,11.27
2019-01-21T12:28:33.013Z,12.37
2019-01-21T12:31:17.745Z,11.50
2019-01-21T12:34:14.134Z,10.83
2019-01-21T12:37:22.017Z,11.53
2019-01-21T12:40:46.002Z,9.50
2019-01-21T12:43:58.862Z,11.30
2019-01-21T12:46:48.789Z,11.27
2019-01-21T12:49:38.841Z,11.07
2019-01-21T12:52:20.231Z,11.37
2019-01-21T12:55:33.918Z,11.90
2019-01-21T12:58:28.788Z,10.57
2019-01-21T13:01:19.018Z,10.80
2019-01-21T13:04:35.114Z,11.33
2019-01-21T13:07:40.702Z,11.20
2019-01-21T13:10:56.419Z,9.53
2019-01-21T13:14:18.810Z,9.87
2019-01-21T13:17:25.629Z,10.83
2019-01-21T13:20:41.446Z,11.00
2019-01-21T13:23:24.232Z,10.87
2019-01-21T13:26:27.930Z,10.40
2019-01-21T13:29:40.599Z,11.30
2019-01-21T13:32:29.176Z,11.37
2019-01-21T13:35:48.456Z,11.70
2019-01-21T13:39:08.407Z,10.60
2019-01-21T13:42:17.515Z,10.50
2019-01-21T13:45:10.363Z,11.70
2019-01-21T13:48:39.188Z,10.77
2019-01-21T13:51:31.981Z,11.23
2019-01-21T13:54:15.327Z,9.83
2019-01-21T13:57:27.013Z,10.67
2019-01-21T14:00:12.609Z,11.40
2019-01-21T14:03:25.665Z,11.17
2019-01-21T14:06:23.036Z,11.00
2019-01-21T14:09:22.069Z,10.57
2019-01-21T14:12:15.491Z,10.63
2019-01-21T14:15:21.723Z,10.80
2019-01-21T14:18:39.296Z,10.97
2019-01-21T14:21:53.870Z,11.50
2019-01-21T14:25:17.347Z,10.90
2019-01-21T14:28:26.181Z,11.37
2019-01-21T14:31:06.118Z,11.03
2019-01-21T14:34:17.000Z,10.97
2019-01-21T14:37:32.205Z,12.77
2019-01-21T14:40:23.929Z,12.30
2019-01-21T14:43:16.271Z,10.30
2019-01-21T14:46:45.145Z,11.23
2019-01-21T14:49:35.834Z,10.90
2019-01-21T14:52:38.044Z,9.90
2019-01-21T14:55:28.960Z,10.90
2019-01-21T14:58:06.836Z,11.07
2019-01-21T15:01:01.599Z,11.30
2019-01-21T15:04:00.228Z,11.43
2019-01-21T15:07:27.101Z,10.87
2019-01-21T15:10:14.532Z,9.80
2019-01-21T15:13:11.848Z,11.27
2019-01-21T15:16:12.949Z,11.57
2019-01-21T15:19:00.221Z,11.37
2019-01-21T15:22:12.957Z,11.57
2019-01-21T15:25:03.271Z,10.07
2019-01-21T15:28:17.434Z,10.47
2019-01-21T15:31:22.495Z,11.20
2019-01-21T15:34:18.641Z,11.37
2019-01-21T15:37:13.184Z,12.20
2019-01-21T15:40:09.366Z,12.37
2019-01-21T15:42:57.194Z,14.17
2019-01-21T15:46:02.171Z,14.57
2019-01-21T15:49:01.061Z,13.97
2019-01-21T15:52:26.428Z,13.73
2019-01-21T15:55:18.574Z,12.10
2019-01-21T15:58:19.086Z,11.63
2019-01-21T16:01:24.405Z,11.47
2019-01-21T16:04:15.490Z,10.83
2019-01-21T16:06:55.964Z,11.23
2019-01-21T16:09:52.714Z,11.60
2019-01-21T16:13:00.852Z,10.23
2019-01-21T16:16:03.372Z,10.93
2019-01-21T16:18:43.878Z,12.10
2019-01-21T16:21:37.331Z,11.70
2019-01-21T16:24:38.589Z,12.63
2019-01-21T16:27:27.371Z,11.47
2019-01-21T16:30:06.339Z,11.27
2019-01-21T16:32:44.412Z,12.27
2019-01-21T16:35:33.510Z,12.73
2019-01-21T16:38:12.568Z,11.90
2019-01-21T16:41:27.197Z,15.97
2019-01-21T16:43:57.065Z,15.37
2019-01-21T16:46:27.003Z,19.20
2019-01-21T16:48:56.754Z,18.23
2019-01-21T16:51:26.542Z,16.93
2019-01-21T16:53:56.405Z,15.03
2019-01-21T16:56:26.277Z,15.83
2019-01-21T16:58:56.024Z,14.23
2019-01-21T17:01:26.694Z,12.33
2019-01-21T17:03:56.460Z,13.00
2019-01-21T17:06:28.588Z,13.37
2019-01-21T17:08:58.370Z,13.47
2019-01-21T17:11:28.436Z,11.73
2019-01-21T17:13:58.130Z,11.77
2019-01-21T17:16:27.842Z,11.60
2019-01-21T17:18:57.685Z,12.43
2019-01-21T17:21:27.480Z,13.97
2019-01-21T17:23:57.221Z,12.37
2019-01-21T17:26:28.824Z,11.70
2019-01-21T17:28:58.498Z,10.57
2019-01-21T17:31:28.282Z,11.57
2019-01-21T17:33:57.984Z,12.93
2019-01-21T17:36:27.764Z,12.10
2019-01-21T17:39:05.099Z,10.50
2019-01-21T17:41:34.922Z,11.30
2019-01-21T17:44:06.897Z,11.83
2019-01-21T17:46:36.786Z,12.27
2019-01-21T17:49:07.468Z,12.20
2019-01-21T17:51:38.844Z,12.07
2019-01-21T17:54:08.665Z,10.60
2019-01-21T17:56:38.440Z,12.20
2019-01-21T17:59:08.374Z,12.17
2019-01-21T18:01:39.426Z,11.20
2019-01-21T18:04:11.051Z,12.33
2019-01-21T18:06:40.805Z,12.17
2019-01-21T18:09:11.647Z,11.93
2019-01-21T18:11:42.677Z,11.93
2019-01-21T18:14:12.550Z,9.87
2019-01-21T18:16:42.423Z,10.63
2019-01-21T18:19:13.617Z,12.00
2019-01-21T18:21:43.523Z,11.27
2019-01-21T18:24:14.391Z,11.23
2019-01-21T18:26:44.211Z,11.70
2019-01-21T18:29:16.086Z,10.37
2019-01-21T18:31:46.173Z,12.03
